UAE9520 OMDW-OKKK
Flight info
| Callsign | UAE9520 |
|---|---|
| Flight time | 1h 21m |
| Altitude | 30000 |
| Route | RIDAP M557 TUMAK M600 KUMBO/N0464F240 A453 DEBTI |
| Aircraft | B744/H-SDE3FGHIM1M2RWXY/LB1 |
Departure
| Time | 2026-04-26 19:53 |
|---|---|
| Airport | Al Maktoum International Airport (OMDW) |
Arrival
| Time | 2026-04-26 21:14 |
|---|---|
| Airport | Kuwait International Airport (OKKK) |
| Time | Latitude | Longitude | Altitude | Speed | Heading |
|---|---|---|---|---|---|
| 2026-04-26 19:08 | 24.89422 | 55.14447 | 117 ft | 0 kts | 301° |
| 2026-04-26 19:21 | 24.89418 | 55.14453 | 117 ft | 2 kts | 301° |
| 2026-04-26 19:22 | 24.89411 | 55.14467 | 118 ft | 2 kts | 301° |
| 2026-04-26 19:22 | 24.89402 | 55.14481 | 118 ft | 2 kts | 313° |
| 2026-04-26 19:22 | 24.89391 | 55.14492 | 119 ft | 2 kts | 326° |
| 2026-04-26 19:22 | 24.89378 | 55.14500 | 119 ft | 2 kts | 338° |
| 2026-04-26 19:23 | 24.89364 | 55.14505 | 119 ft | 2 kts | 350° |
| 2026-04-26 19:23 | 24.89349 | 55.14506 | 120 ft | 2 kts | 2° |
| 2026-04-26 19:23 | 24.89334 | 55.14504 | 120 ft | 2 kts | 15° |
| 2026-04-26 19:23 | 24.89320 | 55.14498 | 120 ft | 2 kts | 27° |
| 2026-04-26 19:24 | 24.89314 | 55.14494 | 120 ft | 1 kts | 31° |
| 2026-04-26 19:24 | 24.89313 | 55.14494 | 120 ft | 0 kts | 31° |
| 2026-04-26 19:45 | 24.89314 | 55.14494 | 120 ft | 0 kts | 31° |
| 2026-04-26 19:45 | 24.89323 | 55.14500 | 120 ft | 4 kts | 30° |
| 2026-04-26 19:45 | 24.89371 | 55.14531 | 119 ft | 14 kts | 31° |
| 2026-04-26 19:45 | 24.89499 | 55.14615 | 116 ft | 28 kts | 30° |
| 2026-04-26 19:46 | 24.89715 | 55.14755 | 116 ft | 41 kts | 34° |
| 2026-04-26 19:46 | 24.89932 | 55.14906 | 117 ft | 20 kts | 29° |
| 2026-04-26 19:46 | 24.89947 | 55.14994 | 117 ft | 10 kts | 116° |
| 2026-04-26 19:46 | 24.89916 | 55.15049 | 118 ft | 7 kts | 122° |
| 2026-04-26 19:47 | 24.89880 | 55.15112 | 119 ft | 14 kts | 120° |
| 2026-04-26 19:47 | 24.89833 | 55.15200 | 120 ft | 25 kts | 122° |
| 2026-04-26 19:47 | 24.89714 | 55.15413 | 122 ft | 0 kts | 120° |
| 2026-04-26 19:47 | 24.89653 | 55.15524 | 123 ft | 41 kts | 122° |
| 2026-04-26 19:48 | 24.89450 | 55.15904 | 127 ft | 62 kts | 116° |
| 2026-04-26 19:48 | 24.89252 | 55.16265 | 128 ft | 46 kts | 121° |
| 2026-04-26 19:48 | 24.89094 | 55.16536 | 135 ft | 39 kts | 122° |
| 2026-04-26 19:48 | 24.88965 | 55.16770 | 144 ft | 32 kts | 122° |
| 2026-04-26 19:49 | 24.88856 | 55.16960 | 152 ft | 27 kts | 121° |
| 2026-04-26 19:49 | 24.88757 | 55.17144 | 160 ft | 28 kts | 122° |
| 2026-04-26 19:49 | 24.88663 | 55.17314 | 166 ft | 23 kts | 121° |
| 2026-04-26 19:49 | 24.88579 | 55.17464 | 167 ft | 23 kts | 121° |
| 2026-04-26 19:50 | 24.88483 | 55.17639 | 168 ft | 29 kts | 121° |
| 2026-04-26 19:50 | 24.88398 | 55.17809 | 171 ft | 19 kts | 94° |
| 2026-04-26 19:50 | 24.88463 | 55.17898 | 173 ft | 13 kts | 30° |
| 2026-04-26 19:50 | 24.88531 | 55.17942 | 174 ft | 8 kts | 25° |
| 2026-04-26 19:51 | 24.88582 | 55.17961 | 173 ft | 6 kts | 17° |
| 2026-04-26 19:51 | 24.88615 | 55.17967 | 173 ft | 3 kts | 353° |
| 2026-04-26 19:51 | 24.88651 | 55.17940 | 174 ft | 9 kts | 298° |
| 2026-04-26 19:51 | 24.88698 | 55.17849 | 174 ft | 27 kts | 301° |
| 2026-04-26 19:52 | 24.88900 | 55.17494 | 167 ft | 82 kts | 299° |
| 2026-04-26 19:52 | 24.89290 | 55.16783 | 138 ft | 132 kts | 300° |
| 2026-04-26 19:52 | 24.89816 | 55.15796 | 235 ft | 158 kts | 297° |
| 2026-04-26 19:52 | 24.90349 | 55.14769 | 702 ft | 149 kts | 303° |
| 2026-04-26 19:53 | 24.90904 | 55.13773 | 779 ft | 160 kts | 304° |
| 2026-04-26 19:53 | 24.91508 | 55.12703 | 1020 ft | 167 kts | 303° |
| 2026-04-26 19:53 | 24.92123 | 55.11614 | 1422 ft | 169 kts | 303° |
| 2026-04-26 19:53 | 24.92733 | 55.10522 | 1910 ft | 166 kts | 303° |
| 2026-04-26 19:54 | 24.93358 | 55.09396 | 2131 ft | 182 kts | 303° |
| 2026-04-26 19:54 | 24.94046 | 55.08160 | 2372 ft | 197 kts | 303° |
| 2026-04-26 19:54 | 24.94771 | 55.06858 | 2804 ft | 200 kts | 303° |
| 2026-04-26 19:54 | 24.95507 | 55.05541 | 3245 ft | 201 kts | 302° |
| 2026-04-26 19:55 | 24.96238 | 55.04226 | 3695 ft | 202 kts | 302° |
| 2026-04-26 19:55 | 24.96963 | 55.02917 | 4078 ft | 204 kts | 302° |
| 2026-04-26 19:55 | 24.97719 | 55.01561 | 4453 ft | 208 kts | 302° |
| 2026-04-26 19:55 | 24.98484 | 55.00201 | 4825 ft | 212 kts | 301° |
| 2026-04-26 19:56 | 24.99259 | 54.98808 | 5093 ft | 220 kts | 301° |
| 2026-04-26 19:56 | 25.00101 | 54.97287 | 5177 ft | 237 kts | 301° |
| 2026-04-26 19:56 | 25.00946 | 54.95747 | 5525 ft | 238 kts | 301° |
| 2026-04-26 19:56 | 25.01810 | 54.94170 | 5892 ft | 238 kts | 301° |
| 2026-04-26 19:57 | 25.02655 | 54.92604 | 6205 ft | 240 kts | 300° |
| 2026-04-26 19:57 | 25.03521 | 54.91023 | 6447 ft | 244 kts | 301° |
| 2026-04-26 19:57 | 25.04433 | 54.89397 | 6645 ft | 250 kts | 300° |
| 2026-04-26 19:57 | 25.05356 | 54.87730 | 6835 ft | 256 kts | 300° |
| 2026-04-26 19:58 | 25.06288 | 54.86047 | 7080 ft | 259 kts | 300° |
| 2026-04-26 19:58 | 25.07222 | 54.84353 | 7326 ft | 261 kts | 300° |
| 2026-04-26 19:58 | 25.08171 | 54.82628 | 7547 ft | 264 kts | 300° |
| 2026-04-26 19:58 | 25.09127 | 54.80883 | 7736 ft | 267 kts | 300° |
| 2026-04-26 19:59 | 25.10275 | 54.79272 | 7835 ft | 275 kts | 317° |
| 2026-04-26 19:59 | 25.11950 | 54.78151 | 8004 ft | 283 kts | 338° |
| 2026-04-26 19:59 | 25.13894 | 54.77663 | 8236 ft | 285 kts | 348° |
| 2026-04-26 19:59 | 25.15847 | 54.77316 | 8456 ft | 286 kts | 346° |
| 2026-04-26 20:00 | 25.17817 | 54.76903 | 8674 ft | 286 kts | 346° |
| 2026-04-26 20:00 | 25.19767 | 54.76495 | 8876 ft | 287 kts | 346° |
| 2026-04-26 20:00 | 25.21751 | 54.76051 | 9072 ft | 289 kts | 345° |
| 2026-04-26 20:00 | 25.23738 | 54.75606 | 9302 ft | 289 kts | 345° |
| 2026-04-26 20:01 | 25.25683 | 54.75174 | 9719 ft | 284 kts | 345° |
| 2026-04-26 20:01 | 25.27639 | 54.74729 | 10213 ft | 287 kts | 345° |
| 2026-04-26 20:01 | 25.29593 | 54.74278 | 10693 ft | 290 kts | 346° |
| 2026-04-26 20:01 | 25.31590 | 54.73839 | 11171 ft | 293 kts | 346° |
| 2026-04-26 20:02 | 25.33606 | 54.73386 | 11646 ft | 294 kts | 345° |
| 2026-04-26 20:02 | 25.35598 | 54.72943 | 12116 ft | 296 kts | 345° |
| 2026-04-26 20:02 | 25.37637 | 54.72453 | 12580 ft | 296 kts | 339° |
| 2026-04-26 20:02 | 25.38883 | 54.71877 | 12870 ft | 293 kts | 326° |
| 2026-04-26 20:03 | 25.40855 | 54.69878 | 13508 ft | 287 kts | 301° |
| 2026-04-26 20:03 | 25.41662 | 54.67893 | 13978 ft | 284 kts | 284° |
| 2026-04-26 20:03 | 25.42140 | 54.65799 | 14461 ft | 285 kts | 283° |
| 2026-04-26 20:03 | 25.42670 | 54.63667 | 14915 ft | 289 kts | 285° |
| 2026-04-26 20:04 | 25.43216 | 54.61511 | 15314 ft | 294 kts | 284° |
| 2026-04-26 20:04 | 25.43826 | 54.59343 | 15651 ft | 302 kts | 288° |
| 2026-04-26 20:04 | 25.44524 | 54.57101 | 15907 ft | 312 kts | 287° |
| 2026-04-26 20:04 | 25.45216 | 54.54779 | 16002 ft | 328 kts | 287° |
| 2026-04-26 20:05 | 25.45957 | 54.52301 | 16124 ft | 342 kts | 287° |
| 2026-04-26 20:05 | 25.46697 | 54.49818 | 16648 ft | 342 kts | 287° |
| 2026-04-26 20:05 | 25.47438 | 54.47331 | 17125 ft | 344 kts | 286° |
| 2026-04-26 20:05 | 25.48194 | 54.44797 | 17610 ft | 346 kts | 286° |
| 2026-04-26 20:06 | 25.48944 | 54.42261 | 18083 ft | 347 kts | 286° |
| 2026-04-26 20:06 | 25.49687 | 54.39742 | 18585 ft | 348 kts | 286° |
| 2026-04-26 20:06 | 25.50445 | 54.37191 | 19043 ft | 350 kts | 286° |
| 2026-04-26 20:06 | 25.51199 | 54.34647 | 19482 ft | 352 kts | 285° |
| 2026-04-26 20:07 | 25.51962 | 54.32065 | 19954 ft | 353 kts | 285° |
| 2026-04-26 20:07 | 25.52712 | 54.29488 | 20407 ft | 355 kts | 285° |
| 2026-04-26 20:07 | 25.53461 | 54.26893 | 20830 ft | 357 kts | 285° |
| 2026-04-26 20:07 | 25.54212 | 54.24253 | 21250 ft | 359 kts | 284° |
| 2026-04-26 20:08 | 25.54988 | 54.21614 | 21686 ft | 361 kts | 286° |
| 2026-04-26 20:08 | 25.55784 | 54.18966 | 22114 ft | 362 kts | 285° |
| 2026-04-26 20:08 | 25.56564 | 54.16333 | 22512 ft | 364 kts | 285° |
| 2026-04-26 20:08 | 25.57349 | 54.13681 | 22949 ft | 365 kts | 285° |
| 2026-04-26 20:09 | 25.58125 | 54.11015 | 23364 ft | 366 kts | 285° |
| 2026-04-26 20:09 | 25.58902 | 54.08322 | 23791 ft | 367 kts | 284° |
| 2026-04-26 20:09 | 25.59661 | 54.05620 | 24191 ft | 368 kts | 284° |
| 2026-04-26 20:09 | 25.60449 | 54.02930 | 24566 ft | 369 kts | 285° |
| 2026-04-26 20:10 | 25.61226 | 54.00222 | 24981 ft | 369 kts | 284° |
| 2026-04-26 20:10 | 25.62013 | 53.97490 | 25342 ft | 371 kts | 285° |
| 2026-04-26 20:10 | 25.62789 | 53.94766 | 25686 ft | 373 kts | 285° |
| 2026-04-26 20:10 | 25.63565 | 53.92051 | 26047 ft | 374 kts | 285° |
| 2026-04-26 20:11 | 25.64352 | 53.89297 | 26409 ft | 375 kts | 285° |
| 2026-04-26 20:11 | 25.65144 | 53.86534 | 26782 ft | 376 kts | 285° |
| 2026-04-26 20:11 | 25.65939 | 53.83755 | 27156 ft | 377 kts | 285° |
| 2026-04-26 20:12 | 25.67502 | 53.78237 | 27842 ft | 379 kts | 285° |
| 2026-04-26 20:12 | 25.68280 | 53.75441 | 28161 ft | 380 kts | 284° |
| 2026-04-26 20:12 | 25.69048 | 53.72628 | 28475 ft | 382 kts | 284° |
| 2026-04-26 20:12 | 25.69847 | 53.69814 | 28770 ft | 384 kts | 285° |
| 2026-04-26 20:13 | 25.70653 | 53.67006 | 29064 ft | 385 kts | 285° |
| 2026-04-26 20:13 | 25.71465 | 53.64149 | 29365 ft | 387 kts | 285° |
| 2026-04-26 20:13 | 25.72253 | 53.61338 | 29627 ft | 389 kts | 285° |
| 2026-04-26 20:13 | 25.73065 | 53.58442 | 29802 ft | 393 kts | 285° |
| 2026-04-26 20:14 | 25.73877 | 53.55528 | 29883 ft | 399 kts | 285° |
| 2026-04-26 20:14 | 25.75519 | 53.49554 | 29934 ft | 415 kts | 285° |
| 2026-04-26 20:15 | 25.77302 | 53.43294 | 29915 ft | 432 kts | 286° |
| 2026-04-26 20:15 | 25.79123 | 53.36861 | 29893 ft | 447 kts | 285° |
| 2026-04-26 20:16 | 25.81003 | 53.30150 | 29892 ft | 462 kts | 285° |
| 2026-04-26 20:16 | 25.82914 | 53.23269 | 29874 ft | 471 kts | 285° |
| 2026-04-26 20:17 | 25.85030 | 53.16328 | 29830 ft | 478 kts | 292° |
| 2026-04-26 20:17 | 25.87846 | 53.09637 | 29852 ft | 481 kts | 291° |
| 2026-04-26 20:18 | 25.90611 | 53.02892 | 29848 ft | 483 kts | 291° |
| 2026-04-26 20:18 | 25.93381 | 52.96092 | 29840 ft | 484 kts | 291° |
| 2026-04-26 20:19 | 25.96151 | 52.89280 | 29846 ft | 483 kts | 292° |
| 2026-04-26 20:19 | 25.98916 | 52.82457 | 29846 ft | 482 kts | 292° |
| 2026-04-26 20:20 | 26.01634 | 52.75663 | 29850 ft | 482 kts | 291° |
| 2026-04-26 20:20 | 26.04602 | 52.69001 | 29859 ft | 482 kts | 295° |
| 2026-04-26 20:21 | 26.07624 | 52.62342 | 29851 ft | 482 kts | 294° |
| 2026-04-26 20:21 | 26.10584 | 52.55717 | 29859 ft | 482 kts | 294° |
| 2026-04-26 20:22 | 26.13602 | 52.49021 | 29865 ft | 482 kts | 294° |
| 2026-04-26 20:22 | 26.16605 | 52.42400 | 29861 ft | 482 kts | 294° |
| 2026-04-26 20:23 | 26.19612 | 52.35735 | 29867 ft | 481 kts | 294° |
| 2026-04-26 20:23 | 26.22541 | 52.29047 | 29875 ft | 481 kts | 293° |
| 2026-04-26 20:24 | 26.25468 | 52.22370 | 29876 ft | 481 kts | 293° |
| 2026-04-26 20:24 | 26.28399 | 52.15652 | 29873 ft | 480 kts | 292° |
| 2026-04-26 20:25 | 26.31258 | 52.08947 | 29876 ft | 480 kts | 292° |
| 2026-04-26 20:25 | 26.34154 | 52.02276 | 29878 ft | 480 kts | 293° |
| 2026-04-26 20:26 | 26.37031 | 51.95593 | 29879 ft | 479 kts | 293° |
| 2026-04-26 20:26 | 26.39463 | 51.88672 | 29878 ft | 477 kts | 288° |
| 2026-04-26 20:27 | 26.41755 | 51.81796 | 29873 ft | 477 kts | 288° |
| 2026-04-26 20:27 | 26.44100 | 51.74893 | 29870 ft | 476 kts | 288° |
| 2026-04-26 20:28 | 26.46396 | 51.67940 | 29864 ft | 476 kts | 287° |
| 2026-04-26 20:28 | 26.48738 | 51.61018 | 29865 ft | 476 kts | 288° |
| 2026-04-26 20:29 | 26.51051 | 51.54113 | 29869 ft | 475 kts | 288° |
| 2026-04-26 20:29 | 26.53335 | 51.47226 | 29870 ft | 475 kts | 288° |
| 2026-04-26 20:30 | 26.55652 | 51.40301 | 29865 ft | 475 kts | 288° |
| 2026-04-26 20:30 | 26.57924 | 51.33390 | 29868 ft | 474 kts | 287° |
| 2026-04-26 20:31 | 26.60179 | 51.26454 | 29881 ft | 475 kts | 288° |
| 2026-04-26 20:31 | 26.62476 | 51.19590 | 29883 ft | 475 kts | 288° |
| 2026-04-26 20:32 | 26.64793 | 51.12655 | 29880 ft | 475 kts | 288° |
| 2026-04-26 20:32 | 26.67080 | 51.05720 | 29884 ft | 475 kts | 288° |
| 2026-04-26 20:33 | 26.69286 | 50.98798 | 29879 ft | 475 kts | 288° |
| 2026-04-26 20:33 | 26.71536 | 50.91883 | 29877 ft | 474 kts | 287° |
| 2026-04-26 20:34 | 26.73768 | 50.84956 | 29873 ft | 474 kts | 287° |
| 2026-04-26 20:34 | 26.75990 | 50.78043 | 29879 ft | 473 kts | 287° |
| 2026-04-26 20:35 | 26.78185 | 50.71137 | 29873 ft | 473 kts | 287° |
| 2026-04-26 20:35 | 26.80354 | 50.64164 | 29873 ft | 472 kts | 288° |
| 2026-04-26 20:36 | 26.82727 | 50.57338 | 29884 ft | 472 kts | 288° |
| 2026-04-26 20:36 | 26.85066 | 50.50466 | 29878 ft | 472 kts | 288° |
| 2026-04-26 20:37 | 26.87405 | 50.43627 | 29855 ft | 474 kts | 291° |
| 2026-04-26 20:37 | 26.90886 | 50.37277 | 29885 ft | 476 kts | 298° |
| 2026-04-26 20:38 | 26.94387 | 50.30984 | 29907 ft | 477 kts | 298° |
| 2026-04-26 20:38 | 26.97880 | 50.24667 | 29887 ft | 478 kts | 298° |
| 2026-04-26 20:39 | 27.01365 | 50.18319 | 29883 ft | 478 kts | 297° |
| 2026-04-26 20:39 | 27.04800 | 50.11985 | 29861 ft | 479 kts | 299° |
| 2026-04-26 20:40 | 27.09158 | 50.06249 | 29881 ft | 483 kts | 306° |
| 2026-04-26 20:40 | 27.13531 | 50.00567 | 29892 ft | 483 kts | 306° |
| 2026-04-26 20:41 | 27.17911 | 49.94822 | 29891 ft | 483 kts | 306° |
| 2026-04-26 20:41 | 27.22283 | 49.89077 | 29894 ft | 484 kts | 306° |
| 2026-04-26 20:42 | 27.26645 | 49.83324 | 29900 ft | 484 kts | 306° |
| 2026-04-26 20:42 | 27.30988 | 49.77589 | 29905 ft | 484 kts | 305° |
| 2026-04-26 20:43 | 27.35343 | 49.71824 | 29901 ft | 483 kts | 305° |
| 2026-04-26 20:43 | 27.39694 | 49.66078 | 29904 ft | 484 kts | 306° |
| 2026-04-26 20:44 | 27.44064 | 49.60301 | 29908 ft | 484 kts | 305° |
| 2026-04-26 20:44 | 27.48402 | 49.54508 | 29874 ft | 486 kts | 308° |
| 2026-04-26 20:45 | 27.53750 | 49.49685 | 29898 ft | 493 kts | 316° |
| 2026-04-26 20:45 | 27.59141 | 49.44915 | 29909 ft | 493 kts | 316° |
| 2026-04-26 20:46 | 27.64513 | 49.40120 | 29906 ft | 493 kts | 316° |
| 2026-04-26 20:46 | 27.69889 | 49.35300 | 29909 ft | 494 kts | 316° |
| 2026-04-26 20:47 | 27.75269 | 49.30465 | 29912 ft | 495 kts | 315° |
| 2026-04-26 20:47 | 27.80682 | 49.25624 | 29915 ft | 495 kts | 315° |
| 2026-04-26 20:48 | 27.86047 | 49.20732 | 29908 ft | 494 kts | 315° |
| 2026-04-26 20:48 | 27.91653 | 49.16587 | 29846 ft | 463 kts | 325° |
| 2026-04-26 20:48 | 27.94402 | 49.14848 | 29818 ft | 448 kts | 322° |
| 2026-04-26 20:49 | 27.97071 | 49.13119 | 29837 ft | 439 kts | 323° |
| 2026-04-26 20:49 | 28.02327 | 49.09704 | 29868 ft | 432 kts | 322° |
| 2026-04-26 20:50 | 28.07522 | 49.06299 | 29902 ft | 435 kts | 323° |
| 2026-04-26 20:50 | 28.12805 | 49.02835 | 29916 ft | 439 kts | 323° |
| 2026-04-26 20:51 | 28.18106 | 48.99363 | 29886 ft | 440 kts | 323° |
| 2026-04-26 20:51 | 28.23369 | 48.95896 | 29649 ft | 426 kts | 322° |
| 2026-04-26 20:51 | 28.25876 | 48.94215 | 29324 ft | 410 kts | 322° |
| 2026-04-26 20:52 | 28.28250 | 48.92585 | 28823 ft | 396 kts | 320° |
| 2026-04-26 20:52 | 28.30582 | 48.90992 | 28367 ft | 385 kts | 323° |
| 2026-04-26 20:52 | 28.32942 | 48.89491 | 27955 ft | 390 kts | 322° |
| 2026-04-26 20:52 | 28.35301 | 48.87933 | 27530 ft | 395 kts | 322° |
| 2026-04-26 20:53 | 28.37656 | 48.86396 | 27111 ft | 392 kts | 322° |
| 2026-04-26 20:53 | 28.39998 | 48.84848 | 26649 ft | 383 kts | 322° |
| 2026-04-26 20:53 | 28.42265 | 48.83355 | 26181 ft | 377 kts | 322° |
| 2026-04-26 20:53 | 28.44539 | 48.81846 | 25746 ft | 382 kts | 322° |
| 2026-04-26 20:54 | 28.46841 | 48.80334 | 25331 ft | 378 kts | 322° |
| 2026-04-26 20:54 | 28.49083 | 48.78856 | 24881 ft | 369 kts | 322° |
| 2026-04-26 20:54 | 28.51324 | 48.77362 | 24440 ft | 375 kts | 322° |
| 2026-04-26 20:54 | 28.53560 | 48.75858 | 24038 ft | 372 kts | 322° |
| 2026-04-26 20:55 | 28.55772 | 48.74360 | 23576 ft | 365 kts | 321° |
| 2026-04-26 20:55 | 28.57762 | 48.72635 | 23098 ft | 354 kts | 307° |
| 2026-04-26 20:55 | 28.59288 | 48.70506 | 22665 ft | 346 kts | 300° |
| 2026-04-26 20:55 | 28.60729 | 48.68328 | 22291 ft | 343 kts | 302° |
| 2026-04-26 20:56 | 28.62171 | 48.66199 | 21893 ft | 344 kts | 301° |
| 2026-04-26 20:56 | 28.63621 | 48.64039 | 21492 ft | 338 kts | 302° |
| 2026-04-26 20:56 | 28.65054 | 48.61911 | 21084 ft | 340 kts | 302° |
| 2026-04-26 20:56 | 28.66474 | 48.59799 | 20698 ft | 333 kts | 302° |
| 2026-04-26 20:57 | 28.67874 | 48.57693 | 20314 ft | 338 kts | 302° |
| 2026-04-26 20:57 | 28.69301 | 48.55546 | 19930 ft | 335 kts | 302° |
| 2026-04-26 20:57 | 28.70674 | 48.53468 | 19520 ft | 328 kts | 302° |
| 2026-04-26 20:57 | 28.72047 | 48.51361 | 19108 ft | 327 kts | 302° |
| 2026-04-26 20:58 | 28.73409 | 48.49361 | 18701 ft | 328 kts | 308° |
| 2026-04-26 20:58 | 28.75243 | 48.47702 | 18316 ft | 340 kts | 324° |
| 2026-04-26 20:58 | 28.77340 | 48.46507 | 17956 ft | 335 kts | 328° |
| 2026-04-26 20:58 | 28.79414 | 48.45290 | 17580 ft | 334 kts | 326° |
| 2026-04-26 20:59 | 28.81448 | 48.44064 | 17181 ft | 332 kts | 326° |
| 2026-04-26 20:59 | 28.83472 | 48.42842 | 16812 ft | 326 kts | 326° |
| 2026-04-26 20:59 | 28.85489 | 48.41606 | 16443 ft | 330 kts | 326° |
| 2026-04-26 20:59 | 28.87494 | 48.40375 | 16048 ft | 327 kts | 326° |
| 2026-04-26 21:00 | 28.89499 | 48.39136 | 15676 ft | 326 kts | 326° |
| 2026-04-26 21:00 | 28.91478 | 48.37917 | 15310 ft | 325 kts | 327° |
| 2026-04-26 21:00 | 28.93461 | 48.36684 | 14917 ft | 321 kts | 327° |
| 2026-04-26 21:00 | 28.95416 | 48.35472 | 14531 ft | 318 kts | 327° |
| 2026-04-26 21:01 | 28.97371 | 48.34249 | 14180 ft | 320 kts | 326° |
| 2026-04-26 21:01 | 28.99314 | 48.33026 | 13864 ft | 318 kts | 326° |
| 2026-04-26 21:01 | 29.01222 | 48.31820 | 13680 ft | 314 kts | 326° |
| 2026-04-26 21:01 | 29.03165 | 48.30606 | 13465 ft | 319 kts | 327° |
| 2026-04-26 21:02 | 29.05121 | 48.29403 | 13141 ft | 323 kts | 327° |
| 2026-04-26 21:02 | 29.07097 | 48.28167 | 12760 ft | 320 kts | 327° |
| 2026-04-26 21:02 | 29.09015 | 48.26987 | 12395 ft | 310 kts | 327° |
| 2026-04-26 21:02 | 29.10918 | 48.25797 | 12063 ft | 310 kts | 327° |
| 2026-04-26 21:03 | 29.12788 | 48.24626 | 11742 ft | 304 kts | 327° |
| 2026-04-26 21:03 | 29.14588 | 48.23489 | 11483 ft | 289 kts | 326° |
| 2026-04-26 21:03 | 29.16319 | 48.22375 | 11252 ft | 284 kts | 327° |
| 2026-04-26 21:03 | 29.18085 | 48.21295 | 10897 ft | 289 kts | 327° |
| 2026-04-26 21:04 | 29.19829 | 48.20206 | 10556 ft | 284 kts | 327° |
| 2026-04-26 21:04 | 29.21550 | 48.19133 | 10262 ft | 272 kts | 327° |
| 2026-04-26 21:04 | 29.23150 | 48.18103 | 9959 ft | 263 kts | 326° |
| 2026-04-26 21:04 | 29.24797 | 48.17084 | 9441 ft | 269 kts | 328° |
| 2026-04-26 21:05 | 29.26411 | 48.16087 | 9108 ft | 259 kts | 327° |
| 2026-04-26 21:05 | 29.27997 | 48.15096 | 8994 ft | 263 kts | 327° |
| 2026-04-26 21:05 | 29.29635 | 48.14050 | 8861 ft | 273 kts | 327° |
| 2026-04-26 21:05 | 29.31332 | 48.12984 | 8550 ft | 277 kts | 328° |
| 2026-04-26 21:06 | 29.32993 | 48.11954 | 8399 ft | 268 kts | 327° |
| 2026-04-26 21:06 | 29.34621 | 48.10937 | 8009 ft | 265 kts | 328° |
| 2026-04-26 21:06 | 29.36240 | 48.09924 | 7425 ft | 266 kts | 328° |
| 2026-04-26 21:06 | 29.37865 | 48.08896 | 6832 ft | 265 kts | 328° |
| 2026-04-26 21:07 | 29.39494 | 48.07878 | 6255 ft | 265 kts | 328° |
| 2026-04-26 21:07 | 29.41101 | 48.06864 | 5684 ft | 263 kts | 328° |
| 2026-04-26 21:07 | 29.42567 | 48.05697 | 5310 ft | 249 kts | 311° |
| 2026-04-26 21:07 | 29.43468 | 48.04096 | 5120 ft | 229 kts | 288° |
| 2026-04-26 21:08 | 29.43668 | 48.02383 | 4927 ft | 213 kts | 263° |
| 2026-04-26 21:08 | 29.43210 | 48.00839 | 4736 ft | 199 kts | 240° |
| 2026-04-26 21:08 | 29.42494 | 47.99462 | 4755 ft | 209 kts | 241° |
| 2026-04-26 21:08 | 29.41752 | 47.97958 | 4820 ft | 223 kts | 242° |
| 2026-04-26 21:09 | 29.40975 | 47.96369 | 4692 ft | 229 kts | 242° |
| 2026-04-26 21:09 | 29.40199 | 47.94773 | 4570 ft | 226 kts | 242° |
| 2026-04-26 21:09 | 29.39448 | 47.93222 | 4449 ft | 222 kts | 242° |
| 2026-04-26 21:09 | 29.38696 | 47.91660 | 4316 ft | 221 kts | 241° |
| 2026-04-26 21:10 | 29.37971 | 47.90163 | 4242 ft | 207 kts | 241° |
| 2026-04-26 21:10 | 29.37275 | 47.88768 | 4050 ft | 193 kts | 235° |
| 2026-04-26 21:10 | 29.36310 | 47.87767 | 3609 ft | 192 kts | 207° |
| 2026-04-26 21:10 | 29.35018 | 47.87442 | 3169 ft | 187 kts | 175° |
| 2026-04-26 21:11 | 29.33836 | 47.87897 | 2920 ft | 174 kts | 146° |
| 2026-04-26 21:11 | 29.32894 | 47.88696 | 2745 ft | 164 kts | 146° |
| 2026-04-26 21:11 | 29.31910 | 47.89344 | 2541 ft | 161 kts | 154° |
| 2026-04-26 21:11 | 29.30884 | 47.89895 | 2284 ft | 165 kts | 155° |
| 2026-04-26 21:12 | 29.29849 | 47.90467 | 2080 ft | 163 kts | 154° |
| 2026-04-26 21:12 | 29.28829 | 47.91009 | 1970 ft | 161 kts | 155° |
| 2026-04-26 21:12 | 29.27803 | 47.91555 | 1724 ft | 167 kts | 154° |
| 2026-04-26 21:12 | 29.26761 | 47.92109 | 1342 ft | 160 kts | 154° |
| 2026-04-26 21:13 | 29.25767 | 47.92635 | 872 ft | 158 kts | 153° |
| 2026-04-26 21:13 | 29.24797 | 47.93151 | 520 ft | 148 kts | 153° |
| 2026-04-26 21:13 | 29.23883 | 47.93630 | 350 ft | 144 kts | 154° |
| 2026-04-26 21:13 | 29.22951 | 47.94125 | 220 ft | 149 kts | 153° |
| 2026-04-26 21:14 | 29.22028 | 47.94616 | 162 ft | 138 kts | 152° |
| 2026-04-26 21:14 | 29.21283 | 47.95015 | 160 ft | 86 kts | 155° |
| 2026-04-26 21:14 | 29.20915 | 47.95212 | 163 ft | 41 kts | 155° |
| 2026-04-26 21:14 | 29.20683 | 47.95347 | 166 ft | 21 kts | 138° |
| 2026-04-26 21:15 | 29.20602 | 47.95465 | 168 ft | 16 kts | 121° |
| 2026-04-26 21:15 | 29.20570 | 47.95522 | 169 ft | 0 kts | 124° |
| 2026-04-26 21:15 | 29.20529 | 47.95589 | 170 ft | 30 kts | 125° |
| 2026-04-26 21:16 | 29.20321 | 47.95768 | 174 ft | 38 kts | 155° |
| 2026-04-26 21:16 | 29.20116 | 47.95879 | 179 ft | 29 kts | 156° |
| 2026-04-26 21:16 | 29.19908 | 47.95964 | 181 ft | 30 kts | 193° |
| 2026-04-26 21:16 | 29.19841 | 47.95797 | 183 ft | 19 kts | 304° |
| 2026-04-26 21:17 | 29.20007 | 47.95690 | 180 ft | 46 kts | 336° |
| 2026-04-26 21:17 | 29.20422 | 47.95478 | 171 ft | 71 kts | 335° |
| 2026-04-26 21:17 | 29.20857 | 47.95241 | 164 ft | 67 kts | 336° |
| 2026-04-26 21:17 | 29.21237 | 47.95050 | 161 ft | 49 kts | 349° |
| 2026-04-26 21:18 | 29.21558 | 47.95083 | 159 ft | 44 kts | 358° |
| 2026-04-26 21:18 | 29.21829 | 47.94970 | 159 ft | 39 kts | 334° |
| 2026-04-26 21:18 | 29.22026 | 47.94924 | 160 ft | 23 kts | 47° |
| 2026-04-26 21:18 | 29.22092 | 47.95076 | 161 ft | 19 kts | 65° |
| 2026-04-26 21:19 | 29.22161 | 47.95160 | 161 ft | 12 kts | 353° |
| 2026-04-26 21:19 | 29.22238 | 47.95135 | 161 ft | 10 kts | 342° |
| 2026-04-26 21:19 | 29.22305 | 47.95088 | 161 ft | 13 kts | 278° |
| 2026-04-26 21:19 | 29.22321 | 47.94967 | 160 ft | 12 kts | 281° |
| 2026-04-26 21:20 | 29.22323 | 47.94956 | 160 ft | 0 kts | 280° |